sensor_id;sensor_type;location;lat;lon;timestamp;P1;durP1;ratioP1;P2;durP2;ratioP2
35126;SDS011;21300;52.006;5.798;2023-10-31T00:01:30;1.27;;;0.55;;
35126;SDS011;21300;52.006;5.798;2023-10-31T00:03:56;1.88;;;0.60;;
35126;SDS011;21300;52.006;5.798;2023-10-31T00:06:21;0.90;;;0.65;;
35126;SDS011;21300;52.006;5.798;2023-10-31T00:08:47;1.73;;;0.70;;
35126;SDS011;21300;52.006;5.798;2023-10-31T00:11:13;0.90;;;0.60;;
35126;SDS011;21300;52.006;5.798;2023-10-31T00:13:38;0.98;;;0.70;;
35126;SDS011;21300;52.006;5.798;2023-10-31T00:16:04;1.10;;;0.60;;
35126;SDS011;21300;52.006;5.798;2023-10-31T00:18:30;0.70;;;0.52;;
35126;SDS011;21300;52.006;5.798;2023-10-31T00:20:55;1.15;;;0.50;;
35126;SDS011;21300;52.006;5.798;2023-10-31T00:23:22;0.90;;;0.40;;
35126;SDS011;21300;52.006;5.798;2023-10-31T00:25:47;3.10;;;0.70;;
35126;SDS011;21300;52.006;5.798;2023-10-31T00:28:13;0.93;;;0.38;;
35126;SDS011;21300;52.006;5.798;2023-10-31T00:30:39;2.58;;;0.50;;
35126;SDS011;21300;52.006;5.798;2023-10-31T00:33:04;1.42;;;0.60;;
35126;SDS011;21300;52.006;5.798;2023-10-31T00:35:30;1.05;;;0.52;;
35126;SDS011;21300;52.006;5.798;2023-10-31T00:37:55;1.58;;;0.63;;
35126;SDS011;21300;52.006;5.798;2023-10-31T00:40:21;1.50;;;0.60;;
35126;SDS011;21300;52.006;5.798;2023-10-31T00:42:47;1.52;;;0.47;;
35126;SDS011;21300;52.006;5.798;2023-10-31T00:45:14;0.93;;;0.60;;
35126;SDS011;21300;52.006;5.798;2023-10-31T00:47:39;1.60;;;0.77;;
35126;SDS011;21300;52.006;5.798;2023-10-31T00:50:06;1.63;;;0.60;;
35126;SDS011;21300;52.006;5.798;2023-10-31T00:52:32;3.38;;;1.05;;
35126;SDS011;21300;52.006;5.798;2023-10-31T00:54:58;0.98;;;0.82;;
35126;SDS011;21300;52.006;5.798;2023-10-31T00:57:24;2.38;;;0.77;;
35126;SDS011;21300;52.006;5.798;2023-10-31T00:59:50;2.30;;;1.10;;
35126;SDS011;21300;52.006;5.798;2023-10-31T01:02:15;2.60;;;1.20;;
35126;SDS011;21300;52.006;5.798;2023-10-31T01:04:41;1.25;;;0.88;;
35126;SDS011;21300;52.006;5.798;2023-10-31T01:07:07;4.45;;;1.90;;
35126;SDS011;21300;52.006;5.798;2023-10-31T01:09:36;2.97;;;1.40;;
35126;SDS011;21300;52.006;5.798;2023-10-31T01:12:03;2.67;;;1.30;;
35126;SDS011;21300;52.006;5.798;2023-10-31T01:14:29;2.22;;;1.70;;
35126;SDS011;21300;52.006;5.798;2023-10-31T01:16:55;3.15;;;1.65;;
35126;SDS011;21300;52.006;5.798;2023-10-31T01:19:20;4.15;;;2.25;;
35126;SDS011;21300;52.006;5.798;2023-10-31T01:21:46;5.20;;;2.35;;
35126;SDS011;21300;52.006;5.798;2023-10-31T01:24:15;5.72;;;2.47;;
35126;SDS011;21300;52.006;5.798;2023-10-31T01:26:40;5.25;;;2.33;;
35126;SDS011;21300;52.006;5.798;2023-10-31T01:29:06;7.28;;;3.60;;
35126;SDS011;21300;52.006;5.798;2023-10-31T01:31:31;8.00;;;3.60;;
35126;SDS011;21300;52.006;5.798;2023-10-31T01:33:58;7.70;;;3.67;;
35126;SDS011;21300;52.006;5.798;2023-10-31T01:36:26;6.88;;;3.72;;
35126;SDS011;21300;52.006;5.798;2023-10-31T01:38:52;6.70;;;3.33;;
35126;SDS011;21300;52.006;5.798;2023-10-31T01:41:18;8.68;;;4.93;;
35126;SDS011;21300;52.006;5.798;2023-10-31T01:43:44;8.93;;;3.78;;
35126;SDS011;21300;52.006;5.798;2023-10-31T01:46:09;8.20;;;4.35;;
35126;SDS011;21300;52.006;5.798;2023-10-31T01:48:36;5.95;;;3.67;;
35126;SDS011;21300;52.006;5.798;2023-10-31T01:51:02;7.13;;;3.55;;
35126;SDS011;21300;52.006;5.798;2023-10-31T01:53:32;5.72;;;3.03;;
35126;SDS011;21300;52.006;5.798;2023-10-31T01:55:59;6.57;;;2.83;;
35126;SDS011;21300;52.006;5.798;2023-10-31T01:58:30;8.13;;;3.40;;
35126;SDS011;21300;52.006;5.798;2023-10-31T02:00:57;7.97;;;4.10;;
35126;SDS011;21300;52.006;5.798;2023-10-31T02:03:25;8.70;;;4.30;;
35126;SDS011;21300;52.006;5.798;2023-10-31T02:05:52;8.55;;;3.95;;
35126;SDS011;21300;52.006;5.798;2023-10-31T02:08:17;10.40;;;4.45;;
35126;SDS011;21300;52.006;5.798;2023-10-31T02:10:43;8.35;;;3.78;;
35126;SDS011;21300;52.006;5.798;2023-10-31T02:13:12;8.65;;;4.05;;
35126;SDS011;21300;52.006;5.798;2023-10-31T02:15:43;8.02;;;3.42;;
35126;SDS011;21300;52.006;5.798;2023-10-31T02:18:09;8.15;;;4.15;;
35126;SDS011;21300;52.006;5.798;2023-10-31T02:20:35;7.38;;;4.03;;
35126;SDS011;21300;52.006;5.798;2023-10-31T02:23:01;7.25;;;3.35;;
35126;SDS011;21300;52.006;5.798;2023-10-31T02:25:27;11.55;;;4.82;;
35126;SDS011;21300;52.006;5.798;2023-10-31T02:27:53;8.15;;;3.88;;
35126;SDS011;21300;52.006;5.798;2023-10-31T02:30:18;9.35;;;4.00;;
35126;SDS011;21300;52.006;5.798;2023-10-31T02:32:44;7.50;;;4.05;;
35126;SDS011;21300;52.006;5.798;2023-10-31T02:35:10;9.70;;;4.47;;
35126;SDS011;21300;52.006;5.798;2023-10-31T02:37:36;10.65;;;4.28;;
35126;SDS011;21300;52.006;5.798;2023-10-31T02:40:01;10.02;;;4.88;;
35126;SDS011;21300;52.006;5.798;2023-10-31T02:42:27;6.88;;;4.22;;
35126;SDS011;21300;52.006;5.798;2023-10-31T02:44:53;8.18;;;4.55;;
35126;SDS011;21300;52.006;5.798;2023-10-31T02:47:19;11.07;;;5.20;;
35126;SDS011;21300;52.006;5.798;2023-10-31T02:49:45;9.98;;;5.85;;
35126;SDS011;21300;52.006;5.798;2023-10-31T02:52:11;8.50;;;4.65;;
35126;SDS011;21300;52.006;5.798;2023-10-31T02:54:36;9.73;;;4.93;;
35126;SDS011;21300;52.006;5.798;2023-10-31T02:57:02;10.82;;;4.95;;
35126;SDS011;21300;52.006;5.798;2023-10-31T02:59:28;11.50;;;5.30;;
35126;SDS011;21300;52.006;5.798;2023-10-31T03:01:55;9.57;;;4.68;;
35126;SDS011;21300;52.006;5.798;2023-10-31T03:04:22;8.82;;;4.95;;
35126;SDS011;21300;52.006;5.798;2023-10-31T03:06:48;10.07;;;4.68;;
35126;SDS011;21300;52.006;5.798;2023-10-31T03:09:14;6.20;;;4.03;;
35126;SDS011;21300;52.006;5.798;2023-10-31T03:11:40;9.57;;;4.50;;
35126;SDS011;21300;52.006;5.798;2023-10-31T03:14:05;12.05;;;5.03;;
35126;SDS011;21300;52.006;5.798;2023-10-31T03:16:31;8.40;;;4.63;;
35126;SDS011;21300;52.006;5.798;2023-10-31T03:18:57;11.57;;;5.50;;
35126;SDS011;21300;52.006;5.798;2023-10-31T03:21:23;10.23;;;4.97;;
35126;SDS011;21300;52.006;5.798;2023-10-31T03:23:49;10.07;;;4.63;;
35126;SDS011;21300;52.006;5.798;2023-10-31T03:26:15;8.38;;;4.45;;
35126;SDS011;21300;52.006;5.798;2023-10-31T03:28:42;9.73;;;4.43;;
35126;SDS011;21300;52.006;5.798;2023-10-31T03:31:09;7.55;;;3.97;;
35126;SDS011;21300;52.006;5.798;2023-10-31T03:33:35;8.25;;;4.18;;
35126;SDS011;21300;52.006;5.798;2023-10-31T03:36:01;8.02;;;4.55;;
35126;SDS011;21300;52.006;5.798;2023-10-31T03:38:27;9.65;;;4.82;;
35126;SDS011;21300;52.006;5.798;2023-10-31T03:40:53;7.82;;;4.07;;
35126;SDS011;21300;52.006;5.798;2023-10-31T03:43:18;7.80;;;3.67;;
35126;SDS011;21300;52.006;5.798;2023-10-31T03:45:45;10.60;;;3.70;;
35126;SDS011;21300;52.006;5.798;2023-10-31T03:48:11;8.40;;;4.22;;
35126;SDS011;21300;52.006;5.798;2023-10-31T03:50:37;7.22;;;3.60;;
35126;SDS011;21300;52.006;5.798;2023-10-31T03:53:03;7.90;;;3.50;;
35126;SDS011;21300;52.006;5.798;2023-10-31T03:55:28;6.00;;;3.60;;
35126;SDS011;21300;52.006;5.798;2023-10-31T03:57:55;8.02;;;3.72;;
35126;SDS011;21300;52.006;5.798;2023-10-31T04:00:21;6.18;;;3.70;;
35126;SDS011;21300;52.006;5.798;2023-10-31T04:02:47;7.05;;;3.85;;
35126;SDS011;21300;52.006;5.798;2023-10-31T04:05:12;9.07;;;3.50;;
35126;SDS011;21300;52.006;5.798;2023-10-31T04:07:38;6.15;;;2.97;;
35126;SDS011;21300;52.006;5.798;2023-10-31T04:10:04;5.18;;;2.80;;
35126;SDS011;21300;52.006;5.798;2023-10-31T04:12:30;5.63;;;3.15;;
35126;SDS011;21300;52.006;5.798;2023-10-31T04:14:56;6.25;;;3.38;;
35126;SDS011;21300;52.006;5.798;2023-10-31T04:17:22;7.25;;;3.28;;
35126;SDS011;21300;52.006;5.798;2023-10-31T04:19:47;6.53;;;3.03;;
35126;SDS011;21300;52.006;5.798;2023-10-31T04:22:13;7.68;;;3.42;;
35126;SDS011;21300;52.006;5.798;2023-10-31T04:24:39;4.88;;;2.78;;
35126;SDS011;21300;52.006;5.798;2023-10-31T04:27:05;5.03;;;2.72;;
35126;SDS011;21300;52.006;5.798;2023-10-31T04:29:32;4.72;;;2.67;;
35126;SDS011;21300;52.006;5.798;2023-10-31T04:31:58;4.68;;;2.20;;
35126;SDS011;21300;52.006;5.798;2023-10-31T04:34:23;5.38;;;2.50;;
35126;SDS011;21300;52.006;5.798;2023-10-31T04:36:49;6.75;;;2.58;;
35126;SDS011;21300;52.006;5.798;2023-10-31T04:39:14;2.90;;;2.00;;
35126;SDS011;21300;52.006;5.798;2023-10-31T04:41:40;4.22;;;2.22;;
35126;SDS011;21300;52.006;5.798;2023-10-31T04:44:06;5.88;;;2.53;;
35126;SDS011;21300;52.006;5.798;2023-10-31T04:46:32;4.78;;;2.40;;
35126;SDS011;21300;52.006;5.798;2023-10-31T04:48:57;3.88;;;2.13;;
35126;SDS011;21300;52.006;5.798;2023-10-31T04:51:23;4.50;;;2.10;;
35126;SDS011;21300;52.006;5.798;2023-10-31T04:53:48;4.28;;;2.17;;
35126;SDS011;21300;52.006;5.798;2023-10-31T04:56:15;5.90;;;3.08;;
35126;SDS011;21300;52.006;5.798;2023-10-31T04:58:44;6.20;;;2.42;;
35126;SDS011;21300;52.006;5.798;2023-10-31T05:01:10;4.03;;;2.30;;
35126;SDS011;21300;52.006;5.798;2023-10-31T05:03:36;4.88;;;2.45;;
35126;SDS011;21300;52.006;5.798;2023-10-31T05:06:02;4.63;;;2.22;;
35126;SDS011;21300;52.006;5.798;2023-10-31T05:08:29;4.32;;;2.55;;
35126;SDS011;21300;52.006;5.798;2023-10-31T05:10:55;6.10;;;2.97;;
35126;SDS011;21300;52.006;5.798;2023-10-31T05:13:21;4.47;;;2.03;;
35126;SDS011;21300;52.006;5.798;2023-10-31T05:15:46;5.53;;;2.92;;
35126;SDS011;21300;52.006;5.798;2023-10-31T05:18:12;4.07;;;2.30;;
35126;SDS011;21300;52.006;5.798;2023-10-31T05:20:37;3.33;;;2.10;;
35126;SDS011;21300;52.006;5.798;2023-10-31T05:23:03;4.70;;;2.30;;
35126;SDS011;21300;52.006;5.798;2023-10-31T05:25:28;5.82;;;2.45;;
35126;SDS011;21300;52.006;5.798;2023-10-31T05:27:54;4.70;;;2.00;;
35126;SDS011;21300;52.006;5.798;2023-10-31T05:30:20;3.65;;;2.40;;
35126;SDS011;21300;52.006;5.798;2023-10-31T05:32:46;5.60;;;3.15;;
35126;SDS011;21300;52.006;5.798;2023-10-31T05:35:12;5.57;;;2.17;;
35126;SDS011;21300;52.006;5.798;2023-10-31T05:37:37;5.20;;;2.35;;
35126;SDS011;21300;52.006;5.798;2023-10-31T05:40:03;4.82;;;2.30;;
35126;SDS011;21300;52.006;5.798;2023-10-31T05:42:29;6.13;;;2.63;;
35126;SDS011;21300;52.006;5.798;2023-10-31T05:44:55;5.40;;;2.75;;
35126;SDS011;21300;52.006;5.798;2023-10-31T05:47:22;7.00;;;2.38;;
35126;SDS011;21300;52.006;5.798;2023-10-31T05:49:47;5.55;;;3.10;;
35126;SDS011;21300;52.006;5.798;2023-10-31T05:52:13;6.13;;;2.72;;
35126;SDS011;21300;52.006;5.798;2023-10-31T05:54:39;5.05;;;2.75;;
35126;SDS011;21300;52.006;5.798;2023-10-31T05:57:05;6.22;;;2.33;;
35126;SDS011;21300;52.006;5.798;2023-10-31T05:59:30;3.53;;;2.00;;
35126;SDS011;21300;52.006;5.798;2023-10-31T06:01:57;5.13;;;2.42;;
35126;SDS011;21300;52.006;5.798;2023-10-31T06:04:23;4.80;;;2.55;;
35126;SDS011;21300;52.006;5.798;2023-10-31T06:06:50;4.88;;;2.70;;
35126;SDS011;21300;52.006;5.798;2023-10-31T06:09:16;5.13;;;2.47;;
35126;SDS011;21300;52.006;5.798;2023-10-31T06:11:42;4.57;;;2.58;;
35126;SDS011;21300;52.006;5.798;2023-10-31T06:14:08;5.80;;;2.38;;
35126;SDS011;21300;52.006;5.798;2023-10-31T06:16:39;3.40;;;2.03;;
35126;SDS011;21300;52.006;5.798;2023-10-31T06:19:06;4.45;;;2.15;;
35126;SDS011;21300;52.006;5.798;2023-10-31T06:21:32;3.72;;;1.90;;
35126;SDS011;21300;52.006;5.798;2023-10-31T06:23:57;4.28;;;2.03;;
35126;SDS011;21300;52.006;5.798;2023-10-31T06:26:23;4.13;;;1.80;;
35126;SDS011;21300;52.006;5.798;2023-10-31T06:28:48;3.25;;;1.67;;
35126;SDS011;21300;52.006;5.798;2023-10-31T06:31:14;4.10;;;1.55;;
35126;SDS011;21300;52.006;5.798;2023-10-31T06:33:40;3.00;;;1.50;;
35126;SDS011;21300;52.006;5.798;2023-10-31T06:36:06;2.88;;;1.40;;
35126;SDS011;21300;52.006;5.798;2023-10-31T06:38:32;1.60;;;1.10;;
35126;SDS011;21300;52.006;5.798;2023-10-31T06:40:58;1.92;;;1.10;;
35126;SDS011;21300;52.006;5.798;2023-10-31T06:43:24;1.30;;;1.10;;
35126;SDS011;21300;52.006;5.798;2023-10-31T06:45:53;1.80;;;1.20;;
35126;SDS011;21300;52.006;5.798;2023-10-31T06:48:18;3.15;;;0.98;;
35126;SDS011;21300;52.006;5.798;2023-10-31T06:50:44;2.05;;;1.00;;
35126;SDS011;21300;52.006;5.798;2023-10-31T06:53:09;2.83;;;1.05;;
35126;SDS011;21300;52.006;5.798;2023-10-31T06:55:35;0.93;;;0.70;;
35126;SDS011;21300;52.006;5.798;2023-10-31T06:58:01;2.63;;;1.20;;
35126;SDS011;21300;52.006;5.798;2023-10-31T07:00:27;1.50;;;1.08;;
35126;SDS011;21300;52.006;5.798;2023-10-31T07:02:52;1.00;;;0.60;;
35126;SDS011;21300;52.006;5.798;2023-10-31T07:05:18;1.13;;;0.73;;
35126;SDS011;21300;52.006;5.798;2023-10-31T07:07:45;2.08;;;1.20;;
35126;SDS011;21300;52.006;5.798;2023-10-31T07:10:11;2.97;;;1.77;;
35126;SDS011;21300;52.006;5.798;2023-10-31T07:12:37;2.47;;;1.60;;
35126;SDS011;21300;52.006;5.798;2023-10-31T07:15:03;4.65;;;1.23;;
35126;SDS011;21300;52.006;5.798;2023-10-31T07:17:29;6.95;;;1.85;;
35126;SDS011;21300;52.006;5.798;2023-10-31T07:19:55;3.80;;;2.10;;
35126;SDS011;21300;52.006;5.798;2023-10-31T07:22:21;5.57;;;2.70;;
35126;SDS011;21300;52.006;5.798;2023-10-31T07:24:49;5.03;;;2.65;;
35126;SDS011;21300;52.006;5.798;2023-10-31T07:27:18;5.05;;;2.78;;
35126;SDS011;21300;52.006;5.798;2023-10-31T07:29:43;8.73;;;3.65;;
35126;SDS011;21300;52.006;5.798;2023-10-31T07:32:09;5.45;;;3.00;;
35126;SDS011;21300;52.006;5.798;2023-10-31T07:34:35;6.75;;;2.97;;
35126;SDS011;21300;52.006;5.798;2023-10-31T07:37:01;6.28;;;3.05;;
35126;SDS011;21300;52.006;5.798;2023-10-31T07:39:26;7.53;;;3.40;;
35126;SDS011;21300;52.006;5.798;2023-10-31T07:41:52;6.80;;;3.38;;
35126;SDS011;21300;52.006;5.798;2023-10-31T07:44:18;9.93;;;3.95;;
35126;SDS011;21300;52.006;5.798;2023-10-31T07:46:43;8.23;;;4.32;;
35126;SDS011;21300;52.006;5.798;2023-10-31T07:49:09;11.10;;;3.67;;
35126;SDS011;21300;52.006;5.798;2023-10-31T07:51:35;7.97;;;3.97;;
35126;SDS011;21300;52.006;5.798;2023-10-31T07:54:00;8.05;;;3.80;;
35126;SDS011;21300;52.006;5.798;2023-10-31T07:56:26;11.38;;;4.05;;
35126;SDS011;21300;52.006;5.798;2023-10-31T07:58:52;8.80;;;4.22;;
35126;SDS011;21300;52.006;5.798;2023-10-31T08:01:18;10.52;;;4.45;;
35126;SDS011;21300;52.006;5.798;2023-10-31T08:03:45;8.80;;;4.20;;
35126;SDS011;21300;52.006;5.798;2023-10-31T08:06:13;10.20;;;4.07;;
35126;SDS011;21300;52.006;5.798;2023-10-31T08:08:39;8.82;;;4.43;;
35126;SDS011;21300;52.006;5.798;2023-10-31T08:11:08;8.00;;;4.50;;
35126;SDS011;21300;52.006;5.798;2023-10-31T08:13:35;7.55;;;3.65;;
35126;SDS011;21300;52.006;5.798;2023-10-31T08:16:02;9.23;;;3.95;;
35126;SDS011;21300;52.006;5.798;2023-10-31T08:18:29;8.98;;;4.72;;
35126;SDS011;21300;52.006;5.798;2023-10-31T08:20:54;9.10;;;4.63;;
35126;SDS011;21300;52.006;5.798;2023-10-31T08:23:20;8.05;;;3.80;;
35126;SDS011;21300;52.006;5.798;2023-10-31T08:25:45;9.00;;;3.85;;
35126;SDS011;21300;52.006;5.798;2023-10-31T08:28:11;6.47;;;3.55;;
35126;SDS011;21300;52.006;5.798;2023-10-31T08:30:37;5.50;;;3.15;;
35126;SDS011;21300;52.006;5.798;2023-10-31T08:33:04;9.90;;;3.78;;
35126;SDS011;21300;52.006;5.798;2023-10-31T08:35:29;8.70;;;3.22;;
35126;SDS011;21300;52.006;5.798;2023-10-31T08:37:55;6.78;;;3.50;;
35126;SDS011;21300;52.006;5.798;2023-10-31T08:40:20;7.30;;;3.22;;
35126;SDS011;21300;52.006;5.798;2023-10-31T08:42:46;7.18;;;3.42;;
35126;SDS011;21300;52.006;5.798;2023-10-31T08:45:12;9.40;;;3.75;;
35126;SDS011;21300;52.006;5.798;2023-10-31T08:47:37;7.07;;;3.58;;
35126;SDS011;21300;52.006;5.798;2023-10-31T08:50:03;5.40;;;2.85;;
35126;SDS011;21300;52.006;5.798;2023-10-31T08:52:29;5.20;;;3.00;;
35126;SDS011;21300;52.006;5.798;2023-10-31T08:54:58;7.47;;;3.08;;
35126;SDS011;21300;52.006;5.798;2023-10-31T08:57:23;6.45;;;3.00;;
35126;SDS011;21300;52.006;5.798;2023-10-31T08:59:49;5.93;;;3.28;;
35126;SDS011;21300;52.006;5.798;2023-10-31T09:02:14;9.90;;;2.88;;
35126;SDS011;21300;52.006;5.798;2023-10-31T09:04:40;6.65;;;2.67;;
35126;SDS011;21300;52.006;5.798;2023-10-31T09:07:05;5.53;;;2.58;;
35126;SDS011;21300;52.006;5.798;2023-10-31T09:09:31;5.85;;;2.22;;
35126;SDS011;21300;52.006;5.798;2023-10-31T09:11:57;4.88;;;2.50;;
35126;SDS011;21300;52.006;5.798;2023-10-31T09:14:22;6.32;;;2.55;;
35126;SDS011;21300;52.006;5.798;2023-10-31T09:16:48;6.28;;;2.85;;
35126;SDS011;21300;52.006;5.798;2023-10-31T09:19:13;5.70;;;1.98;;
35126;SDS011;21300;52.006;5.798;2023-10-31T09:21:39;6.22;;;2.50;;
35126;SDS011;21300;52.006;5.798;2023-10-31T09:24:05;4.68;;;2.38;;
35126;SDS011;21300;52.006;5.798;2023-10-31T09:26:33;3.38;;;2.40;;
35126;SDS011;21300;52.006;5.798;2023-10-31T09:28:59;4.40;;;2.17;;
35126;SDS011;21300;52.006;5.798;2023-10-31T09:31:24;4.30;;;2.47;;
35126;SDS011;21300;52.006;5.798;2023-10-31T09:33:50;4.93;;;2.72;;
35126;SDS011;21300;52.006;5.798;2023-10-31T09:36:16;4.18;;;2.60;;
35126;SDS011;21300;52.006;5.798;2023-10-31T09:38:41;4.57;;;2.60;;
35126;SDS011;21300;52.006;5.798;2023-10-31T09:41:07;7.00;;;3.00;;
35126;SDS011;21300;52.006;5.798;2023-10-31T09:43:33;5.20;;;2.53;;
35126;SDS011;21300;52.006;5.798;2023-10-31T09:45:58;7.75;;;3.38;;
35126;SDS011;21300;52.006;5.798;2023-10-31T09:48:28;7.00;;;3.00;;
35126;SDS011;21300;52.006;5.798;2023-10-31T09:50:54;7.65;;;2.90;;
35126;SDS011;21300;52.006;5.798;2023-10-31T09:53:20;6.15;;;3.17;;
35126;SDS011;21300;52.006;5.798;2023-10-31T09:55:47;6.30;;;3.08;;
35126;SDS011;21300;52.006;5.798;2023-10-31T09:58:13;8.02;;;3.17;;
35126;SDS011;21300;52.006;5.798;2023-10-31T10:00:39;7.50;;;4.20;;
35126;SDS011;21300;52.006;5.798;2023-10-31T10:03:08;7.28;;;4.38;;
35126;SDS011;21300;52.006;5.798;2023-10-31T10:05:37;7.47;;;4.32;;
35126;SDS011;21300;52.006;5.798;2023-10-31T10:08:06;5.85;;;3.47;;
35126;SDS011;21300;52.006;5.798;2023-10-31T10:10:33;7.05;;;4.13;;
35126;SDS011;21300;52.006;5.798;2023-10-31T10:12:59;6.68;;;3.85;;
35126;SDS011;21300;52.006;5.798;2023-10-31T10:15:27;7.93;;;4.35;;
35126;SDS011;21300;52.006;5.798;2023-10-31T10:17:53;6.78;;;4.20;;
35126;SDS011;21300;52.006;5.798;2023-10-31T10:20:19;8.00;;;4.20;;
35126;SDS011;21300;52.006;5.798;2023-10-31T10:22:45;7.57;;;4.25;;
35126;SDS011;21300;52.006;5.798;2023-10-31T10:25:15;11.25;;;4.82;;
35126;SDS011;21300;52.006;5.798;2023-10-31T10:27:43;7.78;;;4.57;;
35126;SDS011;21300;52.006;5.798;2023-10-31T10:30:09;7.13;;;4.32;;
35126;SDS011;21300;52.006;5.798;2023-10-31T10:32:36;7.10;;;4.60;;
35126;SDS011;21300;52.006;5.798;2023-10-31T10:35:02;7.82;;;4.18;;
35126;SDS011;21300;52.006;5.798;2023-10-31T10:37:30;7.50;;;4.38;;
35126;SDS011;21300;52.006;5.798;2023-10-31T10:39:59;6.82;;;4.32;;
35126;SDS011;21300;52.006;5.798;2023-10-31T10:42:32;7.03;;;4.25;;
35126;SDS011;21300;52.006;5.798;2023-10-31T10:45:03;7.88;;;4.47;;
35126;SDS011;21300;52.006;5.798;2023-10-31T10:47:31;7.05;;;3.72;;
35126;SDS011;21300;52.006;5.798;2023-10-31T10:49:58;6.88;;;4.50;;
35126;SDS011;21300;52.006;5.798;2023-10-31T10:52:30;7.18;;;3.75;;
35126;SDS011;21300;52.006;5.798;2023-10-31T10:55:04;9.77;;;4.75;;
35126;SDS011;21300;52.006;5.798;2023-10-31T11:00:21;8.23;;;4.30;;
35126;SDS011;21300;52.006;5.798;2023-10-31T11:02:50;6.20;;;3.78;;
35126;SDS011;21300;52.006;5.798;2023-10-31T11:05:18;7.68;;;4.53;;
35126;SDS011;21300;52.006;5.798;2023-10-31T11:07:44;6.57;;;3.78;;
35126;SDS011;21300;52.006;5.798;2023-10-31T11:10:11;7.53;;;4.47;;
35126;SDS011;21300;52.006;5.798;2023-10-31T11:12:37;9.00;;;4.28;;
35126;SDS011;21300;52.006;5.798;2023-10-31T11:15:06;6.05;;;3.80;;
35126;SDS011;21300;52.006;5.798;2023-10-31T11:17:34;4.95;;;3.78;;
35126;SDS011;21300;52.006;5.798;2023-10-31T11:20:02;6.47;;;4.40;;
35126;SDS011;21300;52.006;5.798;2023-10-31T11:22:38;6.13;;;4.22;;
35126;SDS011;21300;52.006;5.798;2023-10-31T11:25:06;6.95;;;4.05;;
35126;SDS011;21300;52.006;5.798;2023-10-31T11:27:35;6.57;;;3.65;;
35126;SDS011;21300;52.006;5.798;2023-10-31T11:30:29;6.55;;;4.70;;
35126;SDS011;21300;52.006;5.798;2023-10-31T11:33:00;8.18;;;5.47;;
35126;SDS011;21300;52.006;5.798;2023-10-31T11:35:29;9.55;;;6.07;;
35126;SDS011;21300;52.006;5.798;2023-10-31T11:38:02;11.82;;;6.50;;
35126;SDS011;21300;52.006;5.798;2023-10-31T11:40:31;12.05;;;6.40;;
35126;SDS011;21300;52.006;5.798;2023-10-31T11:42:57;13.75;;;7.30;;
35126;SDS011;21300;52.006;5.798;2023-10-31T11:45:27;14.57;;;8.10;;
35126;SDS011;21300;52.006;5.798;2023-10-31T11:48:03;12.63;;;7.88;;
35126;SDS011;21300;52.006;5.798;2023-10-31T11:50:30;17.27;;;7.13;;
35126;SDS011;21300;52.006;5.798;2023-10-31T11:53:01;12.95;;;8.07;;
35126;SDS011;21300;52.006;5.798;2023-10-31T11:55:29;14.95;;;8.07;;
35126;SDS011;21300;52.006;5.798;2023-10-31T11:58:21;12.52;;;6.97;;
35126;SDS011;21300;52.006;5.798;2023-10-31T12:01:02;13.45;;;8.10;;
35126;SDS011;21300;52.006;5.798;2023-10-31T12:03:39;13.90;;;7.63;;
35126;SDS011;21300;52.006;5.798;2023-10-31T12:06:12;13.88;;;7.38;;
35126;SDS011;21300;52.006;5.798;2023-10-31T12:08:43;13.95;;;7.70;;
35126;SDS011;21300;52.006;5.798;2023-10-31T12:11:13;14.93;;;8.13;;
35126;SDS011;21300;52.006;5.798;2023-10-31T12:16:31;15.10;;;7.53;;
35126;SDS011;21300;52.006;5.798;2023-10-31T12:18:58;13.43;;;7.20;;
35126;SDS011;21300;52.006;5.798;2023-10-31T12:21:38;12.40;;;6.80;;
35126;SDS011;21300;52.006;5.798;2023-10-31T12:24:05;11.95;;;6.70;;
35126;SDS011;21300;52.006;5.798;2023-10-31T12:26:32;12.30;;;6.72;;
35126;SDS011;21300;52.006;5.798;2023-10-31T12:36:49;14.50;;;7.13;;
35126;SDS011;21300;52.006;5.798;2023-10-31T12:39:16;15.60;;;7.30;;
35126;SDS011;21300;52.006;5.798;2023-10-31T12:41:46;13.55;;;6.13;;
35126;SDS011;21300;52.006;5.798;2023-10-31T12:44:13;15.50;;;7.07;;
35126;SDS011;21300;52.006;5.798;2023-10-31T12:46:42;16.85;;;7.05;;
35126;SDS011;21300;52.006;5.798;2023-10-31T12:49:11;13.40;;;6.57;;
35126;SDS011;21300;52.006;5.798;2023-10-31T12:51:54;18.27;;;7.50;;
35126;SDS011;21300;52.006;5.798;2023-10-31T12:57:02;13.40;;;5.80;;
35126;SDS011;21300;52.006;5.798;2023-10-31T12:59:30;16.08;;;6.90;;
35126;SDS011;21300;52.006;5.798;2023-10-31T13:01:56;15.57;;;6.50;;
35126;SDS011;21300;52.006;5.798;2023-10-31T13:04:26;14.57;;;6.93;;
35126;SDS011;21300;52.006;5.798;2023-10-31T13:06:59;16.23;;;7.57;;
35126;SDS011;21300;52.006;5.798;2023-10-31T13:09:33;15.50;;;7.55;;
35126;SDS011;21300;52.006;5.798;2023-10-31T13:12:04;15.32;;;7.32;;
35126;SDS011;21300;52.006;5.798;2023-10-31T13:14:31;13.98;;;6.63;;
35126;SDS011;21300;52.006;5.798;2023-10-31T13:16:57;14.48;;;6.65;;
35126;SDS011;21300;52.006;5.798;2023-10-31T13:19:23;16.83;;;6.60;;
35126;SDS011;21300;52.006;5.798;2023-10-31T13:21:48;12.90;;;6.57;;
35126;SDS011;21300;52.006;5.798;2023-10-31T13:24:14;12.73;;;5.53;;
35126;SDS011;21300;52.006;5.798;2023-10-31T13:26:40;13.68;;;6.43;;
35126;SDS011;21300;52.006;5.798;2023-10-31T13:29:06;12.23;;;5.63;;
35126;SDS011;21300;52.006;5.798;2023-10-31T13:31:32;11.38;;;5.55;;
35126;SDS011;21300;52.006;5.798;2023-10-31T13:33:58;13.60;;;5.85;;
35126;SDS011;21300;52.006;5.798;2023-10-31T13:36:23;16.65;;;6.05;;
35126;SDS011;21300;52.006;5.798;2023-10-31T13:38:49;13.63;;;6.28;;
35126;SDS011;21300;52.006;5.798;2023-10-31T13:41:14;15.30;;;6.20;;
35126;SDS011;21300;52.006;5.798;2023-10-31T13:43:40;13.23;;;6.28;;
35126;SDS011;21300;52.006;5.798;2023-10-31T13:46:06;15.70;;;5.60;;
35126;SDS011;21300;52.006;5.798;2023-10-31T13:48:31;15.65;;;6.47;;
35126;SDS011;21300;52.006;5.798;2023-10-31T13:50:57;12.73;;;5.40;;
35126;SDS011;21300;52.006;5.798;2023-10-31T13:53:23;14.43;;;6.38;;
35126;SDS011;21300;52.006;5.798;2023-10-31T13:55:48;16.08;;;6.88;;
35126;SDS011;21300;52.006;5.798;2023-10-31T13:58:14;15.70;;;6.60;;
35126;SDS011;21300;52.006;5.798;2023-10-31T14:00:40;10.02;;;4.78;;
35126;SDS011;21300;52.006;5.798;2023-10-31T14:03:08;11.55;;;5.75;;
35126;SDS011;21300;52.006;5.798;2023-10-31T14:05:34;11.88;;;5.50;;
35126;SDS011;21300;52.006;5.798;2023-10-31T14:07:59;11.55;;;5.40;;
35126;SDS011;21300;52.006;5.798;2023-10-31T14:10:25;11.82;;;5.13;;
35126;SDS011;21300;52.006;5.798;2023-10-31T14:12:51;16.42;;;6.65;;
35126;SDS011;21300;52.006;5.798;2023-10-31T14:15:18;11.43;;;5.70;;
35126;SDS011;21300;52.006;5.798;2023-10-31T14:17:43;12.95;;;5.70;;
35126;SDS011;21300;52.006;5.798;2023-10-31T14:20:09;11.65;;;5.85;;
35126;SDS011;21300;52.006;5.798;2023-10-31T14:22:35;12.23;;;6.10;;
35126;SDS011;21300;52.006;5.798;2023-10-31T14:25:04;9.52;;;5.25;;
35126;SDS011;21300;52.006;5.798;2023-10-31T14:27:35;14.65;;;5.03;;
35126;SDS011;21300;52.006;5.798;2023-10-31T14:30:01;9.70;;;5.13;;
35126;SDS011;21300;52.006;5.798;2023-10-31T14:32:27;10.68;;;4.85;;
35126;SDS011;21300;52.006;5.798;2023-10-31T14:34:53;10.02;;;5.38;;
35126;SDS011;21300;52.006;5.798;2023-10-31T14:37:18;14.38;;;5.93;;
35126;SDS011;21300;52.006;5.798;2023-10-31T14:39:44;11.93;;;5.28;;
35126;SDS011;21300;52.006;5.798;2023-10-31T14:42:10;11.70;;;5.32;;
35126;SDS011;21300;52.006;5.798;2023-10-31T14:44:36;9.82;;;5.13;;
35126;SDS011;21300;52.006;5.798;2023-10-31T14:47:01;9.90;;;5.00;;
35126;SDS011;21300;52.006;5.798;2023-10-31T14:49:27;11.15;;;5.28;;
35126;SDS011;21300;52.006;5.798;2023-10-31T14:51:52;10.05;;;5.47;;
35126;SDS011;21300;52.006;5.798;2023-10-31T14:54:18;10.25;;;4.90;;
35126;SDS011;21300;52.006;5.798;2023-10-31T14:56:46;9.40;;;4.40;;
35126;SDS011;21300;52.006;5.798;2023-10-31T14:59:11;8.18;;;4.53;;